SANT/TUC METAR and TAF weather

Enter ICAO airport designator
Station Type Date Time Source
SANT METAR 2019/02/17 16:00 UTC NOAA

SANT 171600Z 14004KT 9999 FEW035 29/19 Q1013


Station Type Date Time Source
SANT Decoded METAR 2019/02/17 16:00 UTC NOAA

Tucuman Aerodrome, Argentina (SANT) 26-51S 065-06W 450M
Feb 17, 2019 - 11:00 AM EST / 2019.02.17 1600 UTC
Wind: from the SE (140 degrees) at 5 MPH (4 KT):0
Visibility: greater than 7 mile(s):0
Sky conditions: mostly clear
Temperature: 84 F (29 C)
Dew Point: 66 F (19 C)
Relative Humidity: 54%
Pressure (altimeter): 29.91 in. Hg (1013 hPa)
ob: SANT 171600Z 14004KT 9999 FEW035 29/19 Q1013
cycle: 16

Station Type Date Time Source
SANT TAF 2019/02/17 12:13 UTC NOAA

TAF SANT 171100Z 1712/1812 36005KT 9999 SCT040 TX31/1719Z TN21/1810Z
BECMG 1713/1715 09005KT 9999 SCT030 FEW040TCU
BECMG 1802/1805 36005KT SCT030


Example: see airport list